createdAt,value
2023-04-20T00:00:30.794Z,99196.09
2023-04-20T00:01:21.391Z,99197.82
2023-04-20T00:01:53.533Z,99197.41
2023-04-20T00:02:25.831Z,99198.91
2023-04-20T00:02:58.518Z,99196.81
2023-04-20T00:03:32.710Z,99198.20
2023-04-20T00:04:05.172Z,99200.52
2023-04-20T00:04:37.100Z,99198.78
2023-04-20T00:05:10.196Z,99198.39
2023-04-20T00:05:42.910Z,99199.01
2023-04-20T00:06:15.127Z,99199.86
2023-04-20T00:06:47.140Z,99201.73
2023-04-20T00:07:19.144Z,99199.77
2023-04-20T00:07:51.322Z,99201.36
2023-04-20T00:08:23.298Z,99200.70
2023-04-20T00:08:55.650Z,99199.65
2023-04-20T00:09:28.328Z,99200.19
2023-04-20T00:10:00.287Z,99198.61
2023-04-20T00:10:32.320Z,99197.80
2023-04-20T00:11:04.265Z,99197.77
2023-04-20T00:11:36.826Z,99195.35
2023-04-20T00:12:08.668Z,99199.30
2023-04-20T00:12:42.069Z,99197.13
2023-04-20T00:13:13.963Z,99199.95
2023-04-20T00:13:45.945Z,99198.73
2023-04-20T00:14:18.814Z,99198.05
2023-04-20T00:14:51.466Z,99200.46
2023-04-20T00:15:23.449Z,99199.06
2023-04-20T00:15:55.556Z,99198.50
2023-04-20T00:16:27.991Z,99198.80
2023-04-20T00:17:00.161Z,99199.85
2023-04-20T00:17:32.315Z,99198.80
2023-04-20T00:18:04.783Z,99200.40
2023-04-20T00:18:36.887Z,99202.44
2023-04-20T00:19:09.042Z,99201.16
2023-04-20T00:19:40.970Z,99202.60
2023-04-20T00:20:12.970Z,99203.98
2023-04-20T00:20:45.605Z,99199.21
2023-04-20T00:21:21.348Z,99199.25
2023-04-20T00:21:53.925Z,99202.69
2023-04-20T00:22:26.142Z,99203.41
2023-04-20T00:22:58.129Z,99199.73
2023-04-20T00:23:30.045Z,99197.09
2023-04-20T00:24:02.116Z,99198.34
2023-04-20T00:24:34.228Z,99196.95
2023-04-20T00:25:07.226Z,99198.01
2023-04-20T00:25:39.090Z,99198.52
2023-04-20T00:26:11.125Z,99195.02
2023-04-20T00:26:42.901Z,99193.84
2023-04-20T00:27:15.118Z,99192.92
2023-04-20T00:27:47.177Z,99192.27
2023-04-20T00:28:19.175Z,99192.27
2023-04-20T00:28:51.798Z,99194.77
2023-04-20T00:29:23.656Z,99192.34
2023-04-20T00:29:55.601Z,99191.25
2023-04-20T00:30:27.445Z,99191.05
2023-04-20T00:30:59.591Z,99193.52
2023-04-20T00:31:32.349Z,99193.33
2023-04-20T00:32:04.855Z,99193.48
2023-04-20T00:32:36.891Z,99193.59
2023-04-20T00:33:08.766Z,99195.75
2023-04-20T00:33:40.866Z,99194.52
2023-04-20T00:34:12.726Z,99193.48
2023-04-20T00:34:44.620Z,99194.54
2023-04-20T00:35:16.816Z,99194.89
2023-04-20T00:35:48.878Z,99195.42
2023-04-20T00:36:21.534Z,99194.20
2023-04-20T00:36:53.610Z,99192.66
2023-04-20T00:37:25.869Z,99192.83
2023-04-20T00:37:57.891Z,99191.06
2023-04-20T00:38:30.059Z,99194.37
2023-04-20T00:39:02.113Z,99196.34
2023-04-20T00:39:33.975Z,99192.98
2023-04-20T00:40:06.915Z,99191.94
2023-04-20T00:40:38.780Z,99192.14
2023-04-20T00:41:11.016Z,99191.98
2023-04-20T00:41:43.110Z,99192.54
2023-04-20T00:42:15.224Z,99190.84
2023-04-20T00:42:47.278Z,99189.63
2023-04-20T00:43:20.269Z,99192.38
2023-04-20T00:43:53.015Z,99190.52
2023-04-20T00:44:24.922Z,99192.98
2023-04-20T00:44:56.949Z,99191.63
2023-04-20T00:45:28.970Z,99193.77
2023-04-20T00:46:00.985Z,99194.05
2023-04-20T00:46:33.260Z,99192.71
2023-04-20T00:47:05.965Z,99194.48
2023-04-20T00:47:38.385Z,99188.75
2023-04-20T00:48:10.263Z,99191.54
2023-04-20T00:48:42.416Z,99191.30
2023-04-20T00:49:14.636Z,99191.45
2023-04-20T00:49:47.329Z,99189.27
2023-04-20T00:50:19.376Z,99191.94
2023-04-20T00:50:51.993Z,99192.13
2023-04-20T00:51:24.416Z,99189.38
2023-04-20T00:52:00.113Z,99191.18
2023-04-20T00:52:32.706Z,99189.80
2023-04-20T00:53:06.100Z,99186.17
2023-04-20T00:53:38.255Z,99190.33
2023-04-20T00:54:11.125Z,99190.14
2023-04-20T00:54:43.379Z,99191.84
2023-04-20T00:55:15.454Z,99190.98
2023-04-20T00:55:48.399Z,99190.98
2023-04-20T00:56:20.582Z,99192.11
2023-04-20T00:56:53.490Z,99190.36
2023-04-20T00:57:27.319Z,99187.95
2023-04-20T00:57:59.190Z,99189.64
2023-04-20T00:58:31.638Z,99191.31
2023-04-20T00:59:03.481Z,99190.76
2023-04-20T00:59:35.764Z,99191.14
2023-04-20T01:00:09.445Z,99192.85
2023-04-20T01:00:41.270Z,99191.84
2023-04-20T01:01:17.056Z,99190.73
2023-04-20T01:01:49.402Z,99192.29
2023-04-20T01:02:21.788Z,99190.00
2023-04-20T01:02:54.371Z,99188.80
2023-04-20T01:03:26.772Z,99186.63
2023-04-20T01:03:59.104Z,99188.70
2023-04-20T01:04:31.362Z,99187.61
2023-04-20T01:05:03.648Z,99186.36
2023-04-20T01:05:35.902Z,99186.89
2023-04-20T01:06:08.565Z,99188.10
2023-04-20T01:06:40.908Z,99190.04
2023-04-20T01:07:12.642Z,99187.05
2023-04-20T01:07:44.609Z,99187.69
2023-04-20T01:08:16.561Z,99188.59
2023-04-20T01:08:50.598Z,99188.78
2023-04-20T01:09:22.592Z,99188.79
2023-04-20T01:09:54.408Z,99188.95
2023-04-20T01:10:26.387Z,99187.73
2023-04-20T01:10:58.257Z,99189.23
2023-04-20T01:11:30.189Z,99186.60
2023-04-20T01:12:02.462Z,99188.65
2023-04-20T01:12:35.032Z,99189.21
2023-04-20T01:13:06.960Z,99188.40
2023-04-20T01:13:38.900Z,99186.44
2023-04-20T01:14:10.867Z,99187.12
2023-04-20T01:14:42.798Z,99187.45
2023-04-20T01:15:15.361Z,99187.80
2023-04-20T01:15:47.449Z,99185.12
2023-04-20T01:16:19.775Z,99184.74
2023-04-20T01:16:51.741Z,99185.92
2023-04-20T01:17:24.131Z,99186.36
2023-04-20T01:17:57.502Z,99185.64
2023-04-20T01:18:40.782Z,99181.41
2023-04-20T01:19:13.243Z,99182.80
2023-04-20T01:19:45.710Z,99182.64
2023-04-20T01:20:17.663Z,99183.16
2023-04-20T01:20:49.398Z,99182.57
2023-04-20T01:21:22.006Z,99184.40
2023-04-20T01:21:54.026Z,99183.81
2023-04-20T01:22:26.677Z,99184.54
2023-04-20T01:22:58.538Z,99183.58
2023-04-20T01:23:34.776Z,99182.17
2023-04-20T01:24:07.345Z,99181.35
2023-04-20T01:24:39.121Z,99181.55
2023-04-20T01:25:11.155Z,99178.17
2023-04-20T01:25:43.101Z,99180.11
2023-04-20T01:26:17.919Z,99179.91
2023-04-20T01:26:49.978Z,99179.42
2023-04-20T01:27:21.917Z,99176.47
2023-04-20T01:27:53.797Z,99178.34
2023-04-20T01:28:26.415Z,99181.45
2023-04-20T01:28:58.579Z,99179.26
2023-04-20T01:29:30.302Z,99177.72
2023-04-20T01:30:02.009Z,99176.38
2023-04-20T01:30:34.115Z,99175.59
2023-04-20T01:31:07.689Z,99176.29
2023-04-20T01:31:39.893Z,99173.02
2023-04-20T01:32:12.751Z,99176.08
2023-04-20T01:32:45.412Z,99171.60
2023-04-20T01:33:17.249Z,99172.61
2023-04-20T01:33:49.417Z,99171.36
2023-04-20T01:34:21.442Z,99171.27
2023-04-20T01:34:54.432Z,99170.19
2023-04-20T01:35:26.607Z,99171.07
2023-04-20T01:35:58.939Z,99167.69
2023-04-20T01:36:32.018Z,99170.66
2023-04-20T01:37:07.648Z,99168.38
2023-04-20T01:37:40.523Z,99171.48
2023-04-20T01:38:18.324Z,99171.20
2023-04-20T01:38:50.861Z,99170.77
2023-04-20T01:39:23.166Z,99175.33
2023-04-20T01:39:55.651Z,99171.20
2023-04-20T01:40:27.731Z,99173.83
2023-04-20T01:41:01.659Z,99174.34
2023-04-20T01:41:33.685Z,99174.17
2023-04-20T01:42:06.353Z,99172.42
2023-04-20T01:42:38.701Z,99173.90
2023-04-20T01:43:10.769Z,99172.94
2023-04-20T01:43:42.709Z,99169.91
2023-04-20T01:44:14.655Z,99167.82
2023-04-20T01:44:46.702Z,99171.65
2023-04-20T01:45:18.774Z,99171.20
2023-04-20T01:45:50.813Z,99171.95
2023-04-20T01:46:22.751Z,99174.70
2023-04-20T01:46:55.158Z,99171.41
2023-04-20T01:47:27.295Z,99175.43
2023-04-20T01:48:00.733Z,99176.09
2023-04-20T01:48:33.448Z,99174.71
2023-04-20T01:49:06.803Z,99178.95
2023-04-20T01:49:38.758Z,99176.06
2023-04-20T01:50:11.053Z,99175.09
2023-04-20T01:50:43.387Z,99180.48
2023-04-20T01:51:15.426Z,99178.92
2023-04-20T01:51:47.374Z,99178.42
2023-04-20T01:52:19.335Z,99179.19
2023-04-20T01:52:51.393Z,99183.02
2023-04-20T01:53:24.960Z,99180.98
2023-04-20T01:53:56.823Z,99181.19
2023-04-20T01:54:28.590Z,99179.52
2023-04-20T01:55:00.615Z,99181.58
2023-04-20T01:55:33.084Z,99183.64
2023-04-20T01:56:05.232Z,99184.40
2023-04-20T01:56:37.169Z,99181.29
2023-04-20T01:57:09.035Z,99182.66
2023-04-20T01:57:41.080Z,99185.25
2023-04-20T01:58:13.062Z,99183.35
2023-04-20T01:58:45.171Z,99186.10
2023-04-20T01:59:17.336Z,99185.70
2023-04-20T01:59:49.885Z,99184.66
2023-04-20T02:00:21.943Z,99185.52
2023-04-20T02:00:53.843Z,99185.80
2023-04-20T02:01:26.099Z,99185.77
2023-04-20T02:01:58.338Z,99186.41
2023-04-20T02:02:30.559Z,99185.11
2023-04-20T02:03:02.956Z,99190.36
2023-04-20T02:03:35.525Z,99184.86
2023-04-20T02:04:08.569Z,99189.57
2023-04-20T02:04:40.433Z,99188.30
2023-04-20T02:05:12.372Z,99186.55
2023-04-20T02:05:44.322Z,99191.11
2023-04-20T02:06:16.258Z,99187.61
2023-04-20T02:06:48.216Z,99183.11
2023-04-20T02:07:20.050Z,99185.61
2023-04-20T02:07:52.132Z,99182.14
2023-04-20T02:08:24.150Z,99182.52
2023-04-20T02:08:56.052Z,99181.77
2023-04-20T02:09:28.082Z,99181.21
2023-04-20T02:10:00.001Z,99179.64
2023-04-20T02:10:32.055Z,99180.52
2023-04-20T02:11:03.917Z,99181.30
2023-04-20T02:11:36.051Z,99180.54
2023-04-20T02:12:07.925Z,99178.72
2023-04-20T02:12:39.735Z,99174.44
2023-04-20T02:13:11.896Z,99176.27
2023-04-20T02:13:43.746Z,99176.10
2023-04-20T02:14:15.821Z,99173.64
2023-04-20T02:14:47.972Z,99174.04
2023-04-20T02:15:19.965Z,99173.11
2023-04-20T02:15:52.051Z,99174.20
2023-04-20T02:16:24.321Z,99174.04
2023-04-20T02:16:56.383Z,99173.03
2023-04-20T02:17:28.734Z,99172.10
2023-04-20T02:18:00.858Z,99173.22
2023-04-20T02:18:32.725Z,99174.66
2023-04-20T02:19:04.670Z,99173.71
2023-04-20T02:19:36.827Z,99176.17
2023-04-20T02:20:10.116Z,99170.82
2023-04-20T02:20:45.444Z,99175.89
2023-04-20T02:21:18.611Z,99174.98
2023-04-20T02:21:50.574Z,99173.44
2023-04-20T02:22:22.407Z,99173.08
2023-04-20T02:22:54.458Z,99175.58
2023-04-20T02:23:26.343Z,99173.05
2023-04-20T02:23:58.154Z,99173.20
2023-04-20T02:24:29.895Z,99173.80
2023-04-20T02:25:04.304Z,99171.70
2023-04-20T02:25:36.351Z,99170.79
2023-04-20T02:26:08.508Z,99171.84
2023-04-20T02:26:40.565Z,99172.10
2023-04-20T02:27:12.535Z,99172.14
2023-04-20T02:27:44.527Z,99168.70
2023-04-20T02:28:16.509Z,99168.05
2023-04-20T02:28:48.239Z,99166.27
2023-04-20T02:29:20.469Z,99164.16
2023-04-20T02:29:52.670Z,99166.67
2023-04-20T02:30:24.716Z,99168.05
2023-04-20T02:30:56.587Z,99162.23
2023-04-20T02:31:28.701Z,99163.46
2023-04-20T02:32:00.779Z,99162.95
2023-04-20T02:32:32.737Z,99164.35
2023-04-20T02:33:04.716Z,99164.83
2023-04-20T02:33:37.642Z,99166.36
2023-04-20T02:34:10.313Z,99163.69
2023-04-20T02:34:42.264Z,99162.92
2023-04-20T02:35:14.160Z,99169.27
2023-04-20T02:35:46.591Z,99161.09
2023-04-20T02:36:18.440Z,99165.97
2023-04-20T02:36:50.158Z,99165.38
2023-04-20T02:37:22.108Z,99165.45
2023-04-20T02:37:54.100Z,99164.44
2023-04-20T02:38:26.852Z,99165.67
2023-04-20T02:38:58.746Z,99161.92
2023-04-20T02:39:30.621Z,99163.86
2023-04-20T02:40:04.509Z,99165.04
2023-04-20T02:40:36.381Z,99165.00
2023-04-20T02:41:08.453Z,99166.43
2023-04-20T02:41:40.260Z,99168.70
2023-04-20T02:42:12.121Z,99165.92
2023-04-20T02:42:43.952Z,99166.88
2023-04-20T02:43:15.904Z,99168.63
2023-04-20T02:43:47.760Z,99170.00
2023-04-20T02:44:19.629Z,99168.06
2023-04-20T02:44:52.371Z,99171.38
2023-04-20T02:45:24.329Z,99170.17
2023-04-20T02:45:56.084Z,99171.25
2023-04-20T02:46:27.923Z,99173.05
2023-04-20T02:46:59.961Z,99173.14
2023-04-20T02:47:31.941Z,99174.73
2023-04-20T02:48:04.634Z,99172.46
2023-04-20T02:48:36.831Z,99173.14
2023-04-20T02:49:08.687Z,99171.38
2023-04-20T02:49:40.836Z,99170.46
2023-04-20T02:50:13.116Z,99173.52
2023-04-20T02:50:44.841Z,99171.38
2023-04-20T02:51:16.884Z,99174.84
2023-04-20T02:51:49.041Z,99171.93
2023-04-20T02:52:21.132Z,99172.33
2023-04-20T02:52:53.249Z,99175.92
2023-04-20T02:53:25.414Z,99174.42
2023-04-20T02:53:57.470Z,99173.57
2023-04-20T02:54:29.419Z,99173.58
2023-04-20T02:55:01.561Z,99173.90
2023-04-20T02:55:33.741Z,99172.14
2023-04-20T02:56:05.973Z,99171.45
2023-04-20T02:56:37.921Z,99171.40
2023-04-20T02:57:11.295Z,99173.57
2023-04-20T02:57:43.359Z,99172.16
2023-04-20T02:58:17.266Z,99168.63
2023-04-20T02:58:51.664Z,99170.48
2023-04-20T02:59:23.604Z,99169.09
2023-04-20T02:59:56.134Z,99171.02
2023-04-20T03:00:28.139Z,99170.30
2023-04-20T03:01:01.435Z,99165.90
2023-04-20T03:01:33.459Z,99165.70
2023-04-20T03:02:05.736Z,99167.70
2023-04-20T03:02:38.047Z,99167.57
2023-04-20T03:03:10.613Z,99167.40
2023-04-20T03:03:42.858Z,99166.00
2023-04-20T03:04:14.940Z,99165.64
2023-04-20T03:04:47.105Z,99165.84
2023-04-20T03:05:19.453Z,99167.02
2023-04-20T03:05:51.399Z,99166.29
2023-04-20T03:06:23.252Z,99168.55
2023-04-20T03:06:55.359Z,99168.71
2023-04-20T03:07:27.651Z,99168.48
2023-04-20T03:07:59.659Z,99167.60
2023-04-20T03:08:31.547Z,99170.70
2023-04-20T03:09:03.634Z,99170.34
2023-04-20T03:09:36.781Z,99173.20
2023-04-20T03:10:09.960Z,99172.16
2023-04-20T03:10:41.704Z,99175.59
2023-04-20T03:11:14.188Z,99174.52
2023-04-20T03:11:46.172Z,99176.58
2023-04-20T03:12:18.171Z,99179.63
2023-04-20T03:12:50.324Z,99177.05
2023-04-20T03:13:22.494Z,99178.69
2023-04-20T03:13:54.404Z,99179.05
2023-04-20T03:14:26.623Z,99177.65
2023-04-20T03:14:58.526Z,99178.18
2023-04-20T03:15:30.486Z,99178.17
2023-04-20T03:16:02.674Z,99182.77
2023-04-20T03:16:35.043Z,99179.43
2023-04-20T03:17:07.146Z,99183.59
2023-04-20T03:17:39.210Z,99182.25
2023-04-20T03:18:11.564Z,99181.14
2023-04-20T03:18:43.519Z,99184.08
2023-04-20T03:19:16.245Z,99181.52
2023-04-20T03:19:48.436Z,99185.70
2023-04-20T03:20:20.346Z,99182.74
2023-04-20T03:20:52.424Z,99187.46
2023-04-20T03:21:24.589Z,99186.09
2023-04-20T03:21:56.630Z,99186.52
2023-04-20T03:22:28.446Z,99187.33
2023-04-20T03:23:00.754Z,99189.06
2023-04-20T03:23:32.688Z,99183.80
2023-04-20T03:24:06.713Z,99185.66
2023-04-20T03:24:38.661Z,99185.33
2023-04-20T03:25:11.604Z,99185.27
2023-04-20T03:25:44.369Z,99186.48
2023-04-20T03:26:17.456Z,99185.82
2023-04-20T03:26:49.304Z,99184.94
2023-04-20T03:27:21.254Z,99186.31
2023-04-20T03:27:53.032Z,99187.48
2023-04-20T03:28:25.049Z,99185.00
2023-04-20T03:28:56.797Z,99185.27
2023-04-20T03:29:28.526Z,99184.86
2023-04-20T03:30:00.401Z,99183.45
2023-04-20T03:30:32.532Z,99183.42
2023-04-20T03:31:06.045Z,99184.10
2023-04-20T03:31:38.178Z,99186.77
2023-04-20T03:32:10.188Z,99187.58
2023-04-20T03:32:42.337Z,99186.11
2023-04-20T03:33:14.426Z,99184.17
2023-04-20T03:33:46.371Z,99187.70
2023-04-20T03:34:18.236Z,99185.33
2023-04-20T03:34:50.587Z,99187.34
2023-04-20T03:35:22.547Z,99184.84
2023-04-20T03:35:55.003Z,99188.31
2023-04-20T03:36:27.972Z,99184.08
2023-04-20T03:36:59.937Z,99190.02
2023-04-20T03:37:31.772Z,99192.27
2023-04-20T03:38:03.809Z,99189.73
2023-04-20T03:38:36.095Z,99192.33
2023-04-20T03:39:08.042Z,99193.86
2023-04-20T03:39:40.069Z,99194.75
2023-04-20T03:40:13.010Z,99195.27
2023-04-20T03:40:45.749Z,99193.90
2023-04-20T03:41:17.986Z,99197.54
2023-04-20T03:41:50.039Z,99196.85
2023-04-20T03:42:21.858Z,99196.25
2023-04-20T03:42:53.834Z,99198.16
2023-04-20T03:43:25.865Z,99196.23
2023-04-20T03:43:57.832Z,99197.23
2023-04-20T03:44:29.966Z,99198.25
2023-04-20T03:45:01.812Z,99199.17
2023-04-20T03:45:33.600Z,99202.96
2023-04-20T03:46:05.585Z,99200.34
2023-04-20T03:46:37.767Z,99201.79
2023-04-20T03:47:10.643Z,99199.20
2023-04-20T03:47:42.857Z,99200.22
2023-04-20T03:48:15.145Z,99200.25
2023-04-20T03:48:47.097Z,99198.59
2023-04-20T03:49:23.966Z,99199.56
2023-04-20T03:49:55.703Z,99199.27
2023-04-20T03:50:27.970Z,99198.79
2023-04-20T03:51:00.228Z,99201.53
2023-04-20T03:51:32.356Z,99198.63
2023-04-20T03:52:05.044Z,99201.44
2023-04-20T03:52:37.093Z,99198.13
2023-04-20T03:53:08.921Z,99199.34
2023-04-20T03:53:41.008Z,99198.98
2023-04-20T03:54:13.010Z,99199.40
2023-04-20T03:54:44.929Z,99196.45
2023-04-20T03:55:17.044Z,99200.25
2023-04-20T03:55:49.114Z,99199.46
2023-04-20T03:56:21.046Z,99202.00
2023-04-20T03:56:52.982Z,99197.69
2023-04-20T03:57:25.074Z,99197.33
2023-04-20T03:57:57.035Z,99198.12
2023-04-20T03:58:28.908Z,99198.94
2023-04-20T03:59:00.909Z,99199.10
2023-04-20T03:59:32.606Z,99196.45
2023-04-20T04:00:05.118Z,99195.73
2023-04-20T04:00:37.357Z,99198.64
2023-04-20T04:01:10.133Z,99198.96
2023-04-20T04:01:43.712Z,99198.54
2023-04-20T04:02:16.341Z,99197.13
2023-04-20T04:02:48.273Z,99196.84
2023-04-20T04:03:20.520Z,99196.28
2023-04-20T04:03:52.803Z,99192.73
2023-04-20T04:04:26.062Z,99198.14
2023-04-20T04:04:58.554Z,99197.55
2023-04-20T04:05:30.755Z,99194.23
2023-04-20T04:06:03.262Z,99196.63
2023-04-20T04:06:35.301Z,99194.50
2023-04-20T04:07:07.197Z,99197.29
2023-04-20T04:07:39.148Z,99196.40
2023-04-20T04:08:11.566Z,99194.46
2023-04-20T04:08:43.664Z,99198.38
2023-04-20T04:09:15.666Z,99203.15
2023-04-20T04:09:48.079Z,99200.61
2023-04-20T04:10:19.916Z,99203.11
2023-04-20T04:10:51.834Z,99204.77
2023-04-20T04:11:25.157Z,99205.45
2023-04-20T04:11:57.117Z,99204.49
2023-04-20T04:12:28.844Z,99204.53
2023-04-20T04:13:00.788Z,99209.17
2023-04-20T04:13:34.474Z,99211.70
2023-04-20T04:14:06.736Z,99209.77
2023-04-20T04:14:38.600Z,99208.13
2023-04-20T04:15:11.778Z,99210.05
2023-04-20T04:15:43.734Z,99207.36
2023-04-20T04:16:15.661Z,99203.30
2023-04-20T04:16:51.166Z,99204.64
2023-04-20T04:17:23.285Z,99204.31
2023-04-20T04:17:55.880Z,99204.64
2023-04-20T04:18:31.941Z,99205.70
2023-04-20T04:19:03.800Z,99205.34
2023-04-20T04:19:35.857Z,99207.91
2023-04-20T04:20:08.733Z,99209.23
2023-04-20T04:20:40.674Z,99209.41
2023-04-20T04:21:13.032Z,99214.70
2023-04-20T04:21:44.909Z,99214.66
2023-04-20T04:22:16.750Z,99214.43
2023-04-20T04:22:48.679Z,99216.83
2023-04-20T04:23:21.352Z,99213.84
2023-04-20T04:23:53.160Z,99215.33
2023-04-20T04:24:26.366Z,99218.83
2023-04-20T04:24:58.424Z,99217.10
2023-04-20T04:25:30.687Z,99219.65
2023-04-20T04:26:04.635Z,99220.73
2023-04-20T04:26:36.590Z,99218.54
2023-04-20T04:27:08.781Z,99220.76
2023-04-20T04:27:40.820Z,99221.24
2023-04-20T04:28:14.289Z,99222.09
2023-04-20T04:28:46.038Z,99219.66
2023-04-20T04:29:19.733Z,99220.79
2023-04-20T04:29:51.815Z,99222.55
2023-04-20T04:30:23.984Z,99218.71
2023-04-20T04:30:56.129Z,99221.46
2023-04-20T04:31:28.178Z,99214.25
2023-04-20T04:32:00.327Z,99219.44
2023-04-20T04:32:34.153Z,99221.23
2023-04-20T04:33:06.120Z,99218.12
2023-04-20T04:33:38.211Z,99217.53
2023-04-20T04:34:10.368Z,99220.96
2023-04-20T04:34:44.062Z,99223.16
2023-04-20T04:35:15.933Z,99222.27
2023-04-20T04:35:49.144Z,99221.02
2023-04-20T04:36:21.298Z,99224.30
2023-04-20T04:36:53.829Z,99223.23
2023-04-20T04:37:26.880Z,99226.46
2023-04-20T04:37:58.947Z,99225.02
2023-04-20T04:38:32.938Z,99222.80
2023-04-20T04:39:04.674Z,99227.79
2023-04-20T04:39:36.849Z,99227.20
2023-04-20T04:40:09.591Z,99225.94
2023-04-20T04:40:41.387Z,99226.42
2023-04-20T04:41:13.376Z,99225.21
2023-04-20T04:41:45.549Z,99224.77
2023-04-20T04:42:17.673Z,99225.02
2023-04-20T04:42:49.658Z,99224.34
2023-04-20T04:43:21.767Z,99227.59
2023-04-20T04:43:53.772Z,99227.55
2023-04-20T04:44:28.286Z,99229.26
2023-04-20T04:45:01.834Z,99229.36
2023-04-20T04:45:33.594Z,99231.48
2023-04-20T04:46:09.652Z,99229.71
2023-04-20T04:46:42.699Z,99229.52
2023-04-20T04:47:17.350Z,99229.67
2023-04-20T04:47:49.246Z,99231.98
2023-04-20T04:48:21.337Z,99233.48
2023-04-20T04:48:53.274Z,99232.36
2023-04-20T04:49:26.352Z,99230.55
2023-04-20T04:49:59.295Z,99231.02
2023-04-20T04:50:31.272Z,99231.64
2023-04-20T04:51:04.260Z,99235.20
2023-04-20T04:51:36.108Z,99234.48
2023-04-20T04:52:08.673Z,99236.66
2023-04-20T04:52:40.946Z,99235.54
2023-04-20T04:53:12.984Z,99234.09
2023-04-20T04:53:46.184Z,99233.70
2023-04-20T04:54:18.117Z,99234.84
2023-04-20T04:54:50.450Z,99236.54
2023-04-20T04:55:22.503Z,99233.52
2023-04-20T04:55:54.437Z,99236.73
2023-04-20T04:56:26.405Z,99239.59
2023-04-20T04:56:58.483Z,99237.29
2023-04-20T04:57:30.712Z,99242.79
2023-04-20T04:58:03.489Z,99235.06
2023-04-20T04:58:35.538Z,99237.60
2023-04-20T04:59:07.276Z,99240.19
2023-04-20T04:59:39.136Z,99240.06
2023-04-20T05:00:12.170Z,99241.14
2023-04-20T05:00:44.246Z,99238.36
2023-04-20T05:01:16.203Z,99237.96
2023-04-20T05:01:48.464Z,99239.14
2023-04-20T05:02:20.663Z,99240.48
2023-04-20T05:02:53.581Z,99237.77
2023-04-20T05:03:25.959Z,99240.88
2023-04-20T05:03:58.615Z,99242.59
2023-04-20T05:04:30.828Z,99243.39
2023-04-20T05:05:03.034Z,99244.28
2023-04-20T05:05:34.867Z,99250.02
2023-04-20T05:06:07.225Z,99242.98
2023-04-20T05:06:39.176Z,99248.84
2023-04-20T05:07:11.255Z,99248.15
2023-04-20T05:07:43.281Z,99241.05
2023-04-20T05:08:15.377Z,99246.31
2023-04-20T05:08:47.280Z,99247.84
2023-04-20T05:09:19.610Z,99246.10
2023-04-20T05:09:51.887Z,99244.05
2023-04-20T05:10:23.736Z,99247.72
2023-04-20T05:10:57.427Z,99244.77
2023-04-20T05:11:31.327Z,99245.73
2023-04-20T05:12:03.707Z,99247.11
2023-04-20T05:12:35.689Z,99244.46
2023-04-20T05:13:07.802Z,99245.96
2023-04-20T05:13:39.965Z,99245.58
2023-04-20T05:14:12.099Z,99246.45
2023-04-20T05:14:44.267Z,99249.17
2023-04-20T05:15:17.547Z,99246.33
2023-04-20T05:15:49.267Z,99244.71
2023-04-20T05:16:21.356Z,99247.63
2023-04-20T05:16:53.609Z,99247.55
2023-04-20T05:17:25.760Z,99246.61
2023-04-20T05:17:57.737Z,99245.48
2023-04-20T05:18:30.078Z,99247.26
2023-04-20T05:19:02.194Z,99245.84
2023-04-20T05:19:34.141Z,99245.02
2023-04-20T05:20:08.358Z,99245.45
2023-04-20T05:20:40.516Z,99243.96
2023-04-20T05:21:12.469Z,99246.72
2023-04-20T05:21:44.346Z,99248.19
2023-04-20T05:22:16.886Z,99247.89
2023-04-20T05:22:48.839Z,99246.90
2023-04-20T05:23:20.973Z,99248.21
2023-04-20T05:23:52.934Z,99248.38
2023-04-20T05:24:24.659Z,99250.34
2023-04-20T05:24:56.396Z,99249.05
2023-04-20T05:25:29.392Z,99252.23
2023-04-20T05:26:01.321Z,99251.63
2023-04-20T05:26:33.176Z,99254.50
2023-04-20T05:27:05.237Z,99254.27
2023-04-20T05:27:37.275Z,99252.66
2023-04-20T05:28:09.231Z,99255.22
2023-04-20T05:28:41.079Z,99257.08
2023-04-20T05:29:15.580Z,99256.16
2023-04-20T05:29:47.531Z,99257.44
2023-04-20T05:30:21.772Z,99259.65
2023-04-20T05:30:56.863Z,99258.73
2023-04-20T05:31:28.822Z,99256.88
2023-04-20T05:32:01.008Z,99261.27
2023-04-20T05:32:33.221Z,99259.17
2023-04-20T05:33:05.165Z,99258.54
2023-04-20T05:33:37.117Z,99259.23
2023-04-20T05:34:09.274Z,99262.80
2023-04-20T05:34:41.525Z,99258.31
2023-04-20T05:35:13.676Z,99258.94
2023-04-20T05:35:46.367Z,99262.48
2023-04-20T05:36:18.523Z,99260.38
2023-04-20T05:36:51.689Z,99259.69
2023-04-20T05:37:23.942Z,99259.89
2023-04-20T05:37:55.982Z,99262.98
2023-04-20T05:38:27.838Z,99261.16
2023-04-20T05:38:59.780Z,99261.04
2023-04-20T05:39:31.833Z,99266.21
2023-04-20T05:40:04.617Z,99264.73
2023-04-20T05:40:36.861Z,99266.63
2023-04-20T05:41:08.706Z,99266.17
2023-04-20T05:41:41.062Z,99268.27
2023-04-20T05:42:13.225Z,99272.11
2023-04-20T05:42:45.180Z,99269.86
2023-04-20T05:43:18.666Z,99272.18
2023-04-20T05:43:50.595Z,99268.13
2023-04-20T05:44:22.652Z,99265.97
2023-04-20T05:44:54.600Z,99265.58
2023-04-20T05:45:27.305Z,99265.45
2023-04-20T05:45:59.353Z,99266.40
2023-04-20T05:46:31.472Z,99268.75
2023-04-20T05:47:05.984Z,99267.97
2023-04-20T05:47:37.972Z,99270.68
2023-04-20T05:48:10.349Z,99269.08
2023-04-20T05:48:42.249Z,99268.45
2023-04-20T05:49:14.197Z,99269.20
2023-04-20T05:49:46.872Z,99269.04
2023-04-20T05:50:18.824Z,99266.63
2023-04-20T05:50:50.870Z,99271.10
2023-04-20T05:51:23.226Z,99271.27
2023-04-20T05:51:55.241Z,99272.23
2023-04-20T05:52:27.118Z,99271.69
2023-04-20T05:52:59.079Z,99271.09
2023-04-20T05:53:31.027Z,99271.81
2023-04-20T05:54:04.290Z,99272.95
2023-04-20T05:54:36.658Z,99273.73
2023-04-20T05:55:09.018Z,99274.41
2023-04-20T05:55:41.161Z,99277.88
2023-04-20T05:56:14.386Z,99278.61
2023-04-20T05:56:46.399Z,99277.64
2023-04-20T05:57:18.245Z,99276.14
2023-04-20T05:57:52.051Z,99277.00
2023-04-20T05:58:24.289Z,99275.38
2023-04-20T05:58:56.990Z,99276.30
2023-04-20T05:59:29.119Z,99272.86
2023-04-20T06:00:03.192Z,99271.77
2023-04-20T06:00:35.506Z,99275.64
2023-04-20T06:01:07.626Z,99273.39
2023-04-20T06:01:39.470Z,99274.52
2023-04-20T06:02:11.784Z,99272.89
2023-04-20T06:02:44.007Z,99273.13
2023-04-20T06:03:16.381Z,99274.14
2023-04-20T06:03:49.195Z,99270.54
2023-04-20T06:04:21.682Z,99270.46
2023-04-20T06:04:53.976Z,99271.32
2023-04-20T06:05:26.122Z,99272.66
2023-04-20T06:05:58.143Z,99272.50
2023-04-20T06:06:30.430Z,99272.90
2023-04-20T06:07:02.681Z,99274.73
2023-04-20T06:07:34.912Z,99279.36
2023-04-20T06:08:06.864Z,99277.61
2023-04-20T06:08:38.724Z,99277.98
2023-04-20T06:09:10.766Z,99277.77
2023-04-20T06:09:42.617Z,99278.21
2023-04-20T06:10:14.801Z,99279.59
2023-04-20T06:10:46.814Z,99276.44
2023-04-20T06:11:18.849Z,99273.67
2023-04-20T06:11:50.913Z,99275.39
2023-04-20T06:12:24.631Z,99277.00
2023-04-20T06:12:58.088Z,99278.86
2023-04-20T06:13:30.063Z,99276.41
2023-04-20T06:14:02.058Z,99279.56
2023-04-20T06:14:33.930Z,99276.86
2023-04-20T06:15:08.274Z,99279.20
2023-04-20T06:15:40.422Z,99278.08
2023-04-20T06:16:12.522Z,99277.23
2023-04-20T06:16:44.734Z,99276.26
2023-04-20T06:17:16.649Z,99273.92
2023-04-20T06:17:48.532Z,99274.08
2023-04-20T06:18:20.999Z,99274.40
2023-04-20T06:18:52.906Z,99277.14
2023-04-20T06:19:24.863Z,99274.92
2023-04-20T06:19:56.803Z,99275.93
2023-04-20T06:20:29.218Z,99278.84